createdAt,value
2019-04-16T00:00:02.326Z,87.84
2019-04-16T00:03:06.227Z,87.37
2019-04-16T00:06:25.707Z,87.89
2019-04-16T00:09:45.103Z,88.04
2019-04-16T00:13:26.076Z,88.32
2019-04-16T00:16:30.048Z,88.65
2019-04-16T00:19:34.776Z,88.66
2019-04-16T00:22:46.295Z,88.85
2019-04-16T00:25:52.046Z,89.15
2019-04-16T00:28:55.674Z,89.43
2019-04-16T00:32:07.898Z,89.46
2019-04-16T00:35:10.142Z,89.23
2019-04-16T00:38:13.947Z,89.36
2019-04-16T00:41:17.801Z,89.25
2019-04-16T00:44:21.670Z,89.83
2019-04-16T00:47:25.484Z,90.30
2019-04-16T00:50:29.372Z,90.19
2019-04-16T00:53:33.305Z,90.27
2019-04-16T00:56:37.129Z,90.16
2019-04-16T00:59:40.954Z,90.23
2019-04-16T01:02:46.963Z,90.31
2019-04-16T01:05:50.402Z,90.48
2019-04-16T01:08:55.182Z,90.63
2019-04-16T01:11:59.587Z,90.69
2019-04-16T01:15:03.482Z,90.36
2019-04-16T01:18:08.868Z,90.66
2019-04-16T01:21:14.152Z,90.57
2019-04-16T01:24:20.221Z,90.43
2019-04-16T01:27:32.356Z,90.22
2019-04-16T01:30:46.020Z,90.26
2019-04-16T01:33:57.768Z,90.14
2019-04-16T01:37:09.595Z,89.83
2019-04-16T01:40:18.458Z,89.91
2019-04-16T01:43:25.559Z,90.02
2019-04-16T01:46:26.682Z,89.70
2019-04-16T01:49:30.526Z,89.55
2019-04-16T01:52:34.319Z,89.54
2019-04-16T01:55:38.219Z,89.42
2019-04-16T01:58:42.084Z,87.83
2019-04-16T02:01:45.954Z,88.10
2019-04-16T02:04:52.080Z,88.14
2019-04-16T02:07:56.404Z,87.65
2019-04-16T02:11:01.034Z,87.49
2019-04-16T02:14:05.172Z,87.65
2019-04-16T02:17:09.081Z,87.41
2019-04-16T02:20:13.165Z,87.42
2019-04-16T02:23:17.475Z,87.27
2019-04-16T02:26:23.553Z,86.44
2019-04-16T02:29:29.746Z,86.47
2019-04-16T02:32:32.467Z,86.54
2019-04-16T02:35:36.265Z,86.91
2019-04-16T02:38:46.264Z,87.08
2019-04-16T02:41:45.683Z,86.48
2019-04-16T02:44:50.373Z,86.72
2019-04-16T02:47:54.413Z,87.02
2019-04-16T02:51:09.179Z,86.92
2019-04-16T02:54:37.822Z,86.78
2019-04-16T02:58:00.133Z,86.64
2019-04-16T03:01:30.732Z,85.97
2019-04-16T03:04:39.415Z,85.41
2019-04-16T03:07:43.312Z,84.70
2019-04-16T03:10:48.031Z,85.21
2019-04-16T03:13:52.869Z,85.21
2019-04-16T03:17:19.369Z,84.94
2019-04-16T03:20:24.037Z,85.20
2019-04-16T03:23:28.451Z,85.87
2019-04-16T03:26:32.310Z,85.81
2019-04-16T03:29:36.278Z,85.40
2019-04-16T03:32:52.343Z,85.93
2019-04-16T03:35:57.784Z,84.90
2019-04-16T03:39:01.860Z,83.01
2019-04-16T03:42:05.763Z,84.16
2019-04-16T03:45:10.277Z,83.84
2019-04-16T03:48:14.226Z,82.82
2019-04-16T03:51:18.129Z,83.46
2019-04-16T03:54:22.628Z,82.69
2019-04-16T03:57:27.016Z,82.50
2019-04-16T04:00:30.815Z,82.18
2019-04-16T04:03:34.606Z,82.55
2019-04-16T04:06:39.620Z,81.41
2019-04-16T04:09:44.053Z,80.89
2019-04-16T04:12:47.901Z,81.53
2019-04-16T04:15:54.894Z,80.38
2019-04-16T04:18:57.501Z,80.36
2019-04-16T04:22:01.329Z,80.82
2019-04-16T04:25:05.829Z,81.55
2019-04-16T04:28:09.715Z,81.34
2019-04-16T04:31:13.530Z,81.63
2019-04-16T04:34:17.794Z,80.87
2019-04-16T04:37:21.731Z,80.16
2019-04-16T04:40:25.556Z,80.23
2019-04-16T04:43:31.964Z,79.76
2019-04-16T04:46:35.066Z,80.85
2019-04-16T04:49:38.907Z,81.32
2019-04-16T04:52:43.220Z,81.49
2019-04-16T04:55:48.274Z,81.47
2019-04-16T04:58:52.104Z,81.42
2019-04-16T05:01:55.916Z,81.69
2019-04-16T05:05:06.809Z,80.59
2019-04-16T05:08:10.747Z,80.77
2019-04-16T05:11:15.829Z,81.32
2019-04-16T05:14:20.299Z,79.83
2019-04-16T05:17:26.827Z,80.87
2019-04-16T05:20:30.687Z,79.96
2019-04-16T05:23:37.556Z,80.00
2019-04-16T05:26:40.004Z,80.89
2019-04-16T05:29:48.600Z,80.28
2019-04-16T05:32:49.383Z,81.09
2019-04-16T05:35:53.197Z,81.29
2019-04-16T05:38:57.015Z,81.65
2019-04-16T05:42:00.903Z,79.96
2019-04-16T05:45:05.647Z,79.55
2019-04-16T05:48:10.137Z,80.44
2019-04-16T05:51:14.030Z,80.80
2019-04-16T05:54:41.504Z,80.37
2019-04-16T05:57:46.451Z,79.59
2019-04-16T06:01:04.033Z,80.26
2019-04-16T06:04:07.951Z,79.95
2019-04-16T06:07:11.758Z,78.42
2019-04-16T06:10:18.135Z,78.41
2019-04-16T06:13:28.940Z,78.16
2019-04-16T06:16:57.611Z,78.94
2019-04-16T06:20:25.400Z,78.73
2019-04-16T06:23:48.514Z,76.92
2019-04-16T06:27:14.520Z,76.94
2019-04-16T06:30:32.942Z,76.46
2019-04-16T06:33:54.213Z,76.65
2019-04-16T06:37:21.603Z,75.58
2019-04-16T06:41:03.343Z,75.63
2019-04-16T06:44:12.731Z,74.37
2019-04-16T06:47:34.495Z,74.91
2019-04-16T06:50:58.671Z,74.50
2019-04-16T06:54:33.604Z,74.52
2019-04-16T06:57:54.809Z,73.66
2019-04-16T07:01:16.316Z,73.37
2019-04-16T07:04:39.299Z,72.92
2019-04-16T07:08:00.811Z,73.05
2019-04-16T07:11:04.732Z,72.77
2019-04-16T07:14:11.572Z,72.98
2019-04-16T07:17:17.339Z,72.28
2019-04-16T07:20:19.911Z,71.83
2019-04-16T07:23:24.767Z,72.89
2019-04-16T07:26:29.333Z,71.86
2019-04-16T07:29:37.160Z,72.11
2019-04-16T07:33:11.980Z,71.73
2019-04-16T07:36:43.738Z,71.88
2019-04-16T07:39:57.635Z,72.64
2019-04-16T07:43:31.004Z,71.22
2019-04-16T07:46:56.687Z,71.41
2019-04-16T07:50:25.530Z,70.78
2019-04-16T07:53:39.611Z,68.26
2019-04-16T07:56:46.679Z,67.87
2019-04-16T07:59:50.616Z,67.40
2019-04-16T08:02:54.723Z,67.33
2019-04-16T08:05:58.667Z,68.04
2019-04-16T08:09:02.607Z,66.88
2019-04-16T08:12:10.772Z,67.08
2019-04-16T08:15:15.258Z,65.39
2019-04-16T08:18:18.081Z,66.30
2019-04-16T08:21:22.681Z,64.91
2019-04-16T08:24:31.559Z,66.15
2019-04-16T08:27:35.410Z,65.27
2019-04-16T08:30:39.621Z,64.67
2019-04-16T08:33:43.605Z,65.47
2019-04-16T08:36:47.444Z,64.77
2019-04-16T08:39:51.278Z,63.67
2019-04-16T08:42:57.522Z,62.89
2019-04-16T08:46:00.701Z,63.96
2019-04-16T08:49:04.971Z,64.03
2019-04-16T08:52:10.170Z,62.82
2019-04-16T08:55:14.608Z,62.18
2019-04-16T08:58:18.514Z,62.54
2019-04-16T09:01:27.066Z,62.00
2019-04-16T09:04:34.275Z,61.24
2019-04-16T09:07:39.505Z,61.94
2019-04-16T09:10:44.761Z,62.44
2019-04-16T09:13:53.397Z,61.42
2019-04-16T09:17:04.711Z,61.24
2019-04-16T09:20:10.672Z,61.32
2019-04-16T09:23:14.557Z,59.89
2019-04-16T09:26:32.838Z,59.95
2019-04-16T09:29:58.763Z,59.91
2019-04-16T09:33:34.451Z,59.75
2019-04-16T09:36:56.105Z,61.58
2019-04-16T09:40:18.592Z,60.04
2019-04-16T09:43:23.906Z,58.73
2019-04-16T09:46:49.769Z,59.80
2019-04-16T09:49:34.289Z,58.90
2019-04-16T09:52:39.221Z,58.97
2019-04-16T09:55:43.129Z,59.33
2019-04-16T09:58:46.942Z,59.09
2019-04-16T10:01:54.241Z,59.51
2019-04-16T10:04:58.239Z,60.24
2019-04-16T10:08:02.063Z,60.77
2019-04-16T10:11:06.495Z,60.10
2019-04-16T10:14:10.533Z,59.25
2019-04-16T10:17:14.786Z,60.03
2019-04-16T10:20:18.766Z,59.41
2019-04-16T10:23:41.619Z,60.20
2019-04-16T10:26:47.306Z,60.69
2019-04-16T10:29:51.160Z,60.57
2019-04-16T10:32:55.160Z,60.27
2019-04-16T10:36:01.103Z,59.24
2019-04-16T10:39:24.608Z,60.73
2019-04-16T10:42:50.507Z,60.36
2019-04-16T10:46:19.096Z,60.85
2019-04-16T10:49:51.041Z,60.07
2019-04-16T10:53:16.657Z,60.93
2019-04-16T10:56:39.472Z,60.94
2019-04-16T11:00:08.567Z,59.32
2019-04-16T11:03:19.844Z,60.73
2019-04-16T11:06:35.254Z,59.42
2019-04-16T11:09:39.193Z,58.55
2019-04-16T11:12:43.007Z,57.06
2019-04-16T11:15:46.829Z,58.19
2019-04-16T11:18:50.797Z,56.21
2019-04-16T11:21:54.753Z,58.78
2019-04-16T11:24:58.637Z,58.32
2019-04-16T11:28:02.589Z,57.45
2019-04-16T11:31:10.674Z,56.05
2019-04-16T11:34:14.707Z,56.84
2019-04-16T11:37:18.518Z,57.11
2019-04-16T11:40:22.422Z,56.48
2019-04-16T11:43:26.375Z,56.43
2019-04-16T11:46:30.315Z,57.21
2019-04-16T11:49:34.248Z,56.22
2019-04-16T11:52:39.936Z,56.23
2019-04-16T11:55:43.834Z,58.57
2019-04-16T11:58:47.763Z,57.68
2019-04-16T12:02:06.776Z,56.24
2019-04-16T12:05:25.659Z,57.94
2019-04-16T12:08:42.710Z,57.73
2019-04-16T12:11:52.951Z,56.95
2019-04-16T12:15:17.515Z,58.00
2019-04-16T12:18:47.711Z,56.12
2019-04-16T12:22:03.747Z,55.57
2019-04-16T12:25:26.695Z,55.66
2019-04-16T12:28:59.473Z,56.57
2019-04-16T12:32:26.808Z,56.55
2019-04-16T12:35:45.537Z,54.22
2019-04-16T12:39:00.202Z,54.66
2019-04-16T12:42:17.313Z,54.81
2019-04-16T12:45:32.942Z,54.91
2019-04-16T12:49:08.036Z,54.52
2019-04-16T12:52:39.927Z,54.15
2019-04-16T12:56:06.037Z,53.09
2019-04-16T12:59:31.666Z,53.93
2019-04-16T13:02:57.387Z,52.94
2019-04-16T13:06:29.495Z,53.57
2019-04-16T13:09:51.081Z,51.12
2019-04-16T13:13:26.142Z,52.50
2019-04-16T13:16:47.538Z,52.69
2019-04-16T13:20:08.473Z,52.56
2019-04-16T13:23:19.544Z,53.82
2019-04-16T13:26:26.083Z,53.47
2019-04-16T13:29:31.771Z,54.00
2019-04-16T13:32:35.570Z,51.70
2019-04-16T13:35:39.483Z,52.85
2019-04-16T13:38:47.980Z,53.06
2019-04-16T13:41:51.876Z,53.01
2019-04-16T13:45:17.014Z,53.07
2019-04-16T13:48:31.874Z,52.38
2019-04-16T13:51:35.864Z,52.31
2019-04-16T13:54:48.663Z,52.41
2019-04-16T13:58:01.426Z,50.23
2019-04-16T14:01:18.903Z,51.50
2019-04-16T14:04:22.740Z,51.70
2019-04-16T14:07:26.624Z,52.12
2019-04-16T14:10:30.471Z,52.10
2019-04-16T14:13:34.401Z,52.59
2019-04-16T14:16:40.878Z,52.02
2019-04-16T14:19:43.882Z,51.70
2019-04-16T14:22:47.821Z,51.28
2019-04-16T14:25:51.661Z,51.70
2019-04-16T14:28:56.991Z,51.15
2019-04-16T14:32:00.869Z,49.79
2019-04-16T14:35:10.348Z,49.08
2019-04-16T14:38:17.253Z,48.94
2019-04-16T14:41:21.055Z,49.11
2019-04-16T14:44:27.141Z,49.73
2019-04-16T14:47:33.000Z,49.43
2019-04-16T14:50:36.616Z,49.48
2019-04-16T14:53:51.249Z,50.50
2019-04-16T14:56:57.342Z,50.73
2019-04-16T15:00:24.539Z,50.10
2019-04-16T15:03:37.166Z,49.76
2019-04-16T15:07:03.505Z,49.60
2019-04-16T15:10:16.429Z,50.09
2019-04-16T15:13:34.965Z,50.67
2019-04-16T15:16:50.881Z,49.55
2019-04-16T15:20:06.854Z,50.46
2019-04-16T15:23:29.007Z,49.95
2019-04-16T15:26:53.342Z,50.59
2019-04-16T15:30:13.870Z,50.37
2019-04-16T15:33:48.610Z,50.19
2019-04-16T15:37:07.499Z,49.62
2019-04-16T15:40:40.572Z,49.43
2019-04-16T15:43:56.483Z,50.55
2019-04-16T15:47:05.529Z,50.86
2019-04-16T15:50:35.751Z,50.20
2019-04-16T15:53:58.146Z,49.41
2019-04-16T15:57:18.688Z,48.98
2019-04-16T16:00:36.213Z,48.98
2019-04-16T16:04:11.301Z,48.35
2019-04-16T16:07:18.560Z,48.75
2019-04-16T16:10:26.646Z,47.87
2019-04-16T16:13:30.448Z,47.98
2019-04-16T16:16:41.756Z,47.91
2019-04-16T16:19:39.886Z,49.51
2019-04-16T16:22:43.711Z,49.04
2019-04-16T16:25:47.617Z,50.39
2019-04-16T16:28:51.427Z,51.92
2019-04-16T16:31:55.308Z,53.33
2019-04-16T16:34:59.358Z,54.62
2019-04-16T16:38:03.573Z,54.98
2019-04-16T16:41:07.571Z,56.25
2019-04-16T16:44:11.367Z,57.33
2019-04-16T16:47:40.472Z,57.05
2019-04-16T16:50:44.782Z,57.66
2019-04-16T16:54:12.308Z,58.02
2019-04-16T16:57:20.397Z,58.19
2019-04-16T17:00:42.215Z,58.84
2019-04-16T17:04:04.045Z,58.49
2019-04-16T17:07:08.827Z,58.68
2019-04-16T17:10:12.793Z,58.30
2019-04-16T17:13:20.937Z,57.95
2019-04-16T17:16:22.271Z,58.17
2019-04-16T17:19:26.091Z,58.73
2019-04-16T17:22:29.917Z,59.38
2019-04-16T17:25:36.654Z,59.37
2019-04-16T17:28:40.370Z,59.95
2019-04-16T17:31:44.891Z,60.04
2019-04-16T17:34:48.809Z,59.43
2019-04-16T17:37:52.626Z,59.50
2019-04-16T17:41:00.203Z,59.59
2019-04-16T17:44:16.571Z,59.98
2019-04-16T17:47:48.632Z,60.58
2019-04-16T17:51:17.479Z,60.45
2019-04-16T17:54:31.757Z,61.21
2019-04-16T17:57:51.816Z,61.96
2019-04-16T18:01:11.063Z,62.47
2019-04-16T18:04:36.771Z,61.83
2019-04-16T18:07:58.502Z,62.76
2019-04-16T18:11:10.810Z,62.59
2019-04-16T18:14:33.838Z,63.17
2019-04-16T18:17:57.130Z,63.37
2019-04-16T18:21:19.861Z,63.61
2019-04-16T18:24:28.882Z,64.02
2019-04-16T18:27:40.052Z,64.32
2019-04-16T18:30:49.891Z,64.84
2019-04-16T18:34:08.251Z,65.25
2019-04-16T18:37:38.365Z,64.68
2019-04-16T18:41:07.219Z,66.05
2019-04-16T18:44:42.227Z,66.41
2019-04-16T18:48:13.819Z,66.85
2019-04-16T18:51:16.910Z,67.14
2019-04-16T18:54:21.386Z,67.49
2019-04-16T18:57:25.256Z,66.57
2019-04-16T19:00:37.985Z,66.66
2019-04-16T19:03:42.009Z,67.37
2019-04-16T19:06:45.796Z,67.76
2019-04-16T19:09:49.621Z,67.62
2019-04-16T19:12:53.537Z,67.49
2019-04-16T19:15:57.334Z,67.48
2019-04-16T19:19:01.183Z,67.41
2019-04-16T19:22:05.234Z,67.42
2019-04-16T19:25:09.440Z,67.57
2019-04-16T19:28:13.328Z,67.26
2019-04-16T19:31:17.162Z,67.23
2019-04-16T19:34:20.971Z,67.01
2019-04-16T19:37:24.808Z,66.65
2019-04-16T19:40:28.595Z,67.27
2019-04-16T19:43:35.274Z,67.51
2019-04-16T19:46:38.088Z,67.33
2019-04-16T19:49:42.040Z,67.74
2019-04-16T19:52:45.949Z,67.74
2019-04-16T19:55:49.961Z,68.53
2019-04-16T19:58:53.761Z,69.00
2019-04-16T20:02:00.199Z,69.36
2019-04-16T20:05:03.186Z,68.82
2019-04-16T20:08:07.005Z,69.24
2019-04-16T20:11:10.921Z,69.39
2019-04-16T20:14:14.741Z,69.86
2019-04-16T20:17:18.547Z,70.05
2019-04-16T20:20:22.393Z,70.27
2019-04-16T20:23:26.198Z,70.40
2019-04-16T20:26:32.441Z,70.66
2019-04-16T20:29:35.652Z,70.66
2019-04-16T20:32:42.275Z,70.79
2019-04-16T20:35:50.359Z,70.68
2019-04-16T20:38:50.666Z,70.94
2019-04-16T20:41:58.992Z,71.05
2019-04-16T20:45:00.075Z,71.20
2019-04-16T20:48:04.033Z,71.58
2019-04-16T20:51:07.849Z,71.88
2019-04-16T20:54:13.792Z,71.89
2019-04-16T20:57:17.233Z,71.59
2019-04-16T21:00:27.379Z,72.12
2019-04-16T21:03:31.606Z,72.43
2019-04-16T21:06:40.519Z,72.80
2019-04-16T21:09:41.188Z,72.82
2019-04-16T21:12:46.039Z,73.17
2019-04-16T21:15:50.035Z,73.93
2019-04-16T21:18:53.919Z,73.99
2019-04-16T21:22:01.310Z,74.30
2019-04-16T21:25:03.724Z,74.78
2019-04-16T21:28:14.944Z,74.55
2019-04-16T21:31:26.766Z,75.30
2019-04-16T21:34:45.185Z,75.58
2019-04-16T21:38:17.379Z,75.86
2019-04-16T21:41:21.179Z,75.80
2019-04-16T21:44:25.032Z,76.12
2019-04-16T21:47:28.912Z,75.68
2019-04-16T21:50:32.717Z,75.76
2019-04-16T21:53:36.562Z,75.76
2019-04-16T21:56:40.407Z,75.33
2019-04-16T21:59:44.254Z,75.67
2019-04-16T22:02:48.204Z,75.59
2019-04-16T22:05:52.205Z,75.82
2019-04-16T22:08:58.855Z,76.23
2019-04-16T22:12:01.655Z,76.21
2019-04-16T22:15:06.726Z,76.52
2019-04-16T22:18:10.537Z,76.41
2019-04-16T22:21:14.435Z,76.35
2019-04-16T22:24:19.739Z,76.29
2019-04-16T22:27:23.822Z,76.82
2019-04-16T22:30:27.659Z,77.14
2019-04-16T22:33:31.565Z,76.82
2019-04-16T22:36:35.538Z,76.79
2019-04-16T22:43:39.675Z,76.94
2019-04-16T22:46:49.987Z,77.21
2019-04-16T22:49:56.707Z,77.19
2019-04-16T22:52:59.517Z,77.02
2019-04-16T22:56:03.437Z,77.15
2019-04-16T22:59:08.365Z,76.63
2019-04-16T23:02:24.075Z,77.25
2019-04-16T23:05:30.803Z,76.77
2019-04-16T23:08:33.398Z,76.87
2019-04-16T23:11:39.128Z,77.09
2019-04-16T23:14:43.058Z,77.08
2019-04-16T23:17:46.950Z,76.90
2019-04-16T23:20:50.823Z,76.28
2019-04-16T23:23:54.635Z,76.84
2019-04-16T23:27:04.256Z,76.87
2019-04-16T23:30:05.534Z,76.75
2019-04-16T23:33:09.715Z,76.69
2019-04-16T23:36:16.545Z,77.30
2019-04-16T23:39:19.174Z,77.11
2019-04-16T23:42:22.990Z,77.37
2019-04-16T23:45:51.956Z,77.54
2019-04-16T23:49:01.718Z,77.36
2019-04-16T23:52:14.200Z,77.59
2019-04-16T23:55:35.863Z,77.50
2019-04-16T23:59:01.464Z,77.76
